Time;durP1;ratioP1;P1;durP2;ratioP2;P2;SDS_P1;SDS_P2;PMS_P1;PMS_P2;Temp;Humidity;BMP_temperature;BMP_pressure;BME280_temperature;BME280_humidity;BME280_pressure;Samples;Min_cycle;Max_cycle;Signal;HPM_P1;HPM_P2
2024/03/31 00:02:23;;;;;;;;;;;;;;;20.97;31.21;97907.41;4998745;28;1021;-73
2024/03/31 00:04:50;;;;;;;;;;;;;;;20.68;31.31;97910.19;4999893;28;1164;-73
2024/03/31 00:07:15;;;;;;;;;;;;;;;20.64;31.48;97909.47;5016297;28;811;-73
2024/03/31 00:09:41;;;;;;;;;;;;;;;20.49;31.75;97908.22;5015764;28;899;-72
2024/03/31 00:12:07;;;;;;;;;;;;;;;20.44;31.79;97900.22;5016033;28;890;-73
2024/03/31 00:14:32;;;;;;;;;;;;;;;20.56;31.62;97908.03;4999717;28;1086;-73
2024/03/31 00:17:00;;;;;;;;;;;;;;;20.65;31.36;97899.75;4999309;28;1230;-73
2024/03/31 00:19:26;;;;;;;;;;;;;;;20.77;31.22;97899.03;4996082;28;1922;-73
2024/03/31 00:21:51;;;;;;;;;;;;;;;20.74;31.56;97902.75;4995907;28;915;-73
2024/03/31 00:24:17;;;;;;;;;;;;;;;20.80;31.54;97900.97;4995976;28;822;-72
2024/03/31 00:26:42;;;;;;;;;;;;;;;20.60;31.84;97891.78;4996157;28;748;-72
2024/03/31 00:29:08;;;;;;;;;;;;;;;20.76;31.60;97899.47;4996275;28;961;-73
2024/03/31 00:31:33;;;;;;;;;;;;;;;20.76;31.64;97900.25;4996018;28;779;-72
2024/03/31 00:33:59;;;;;;;;;;;;;;;20.72;31.45;97893.09;4995938;28;747;-73
2024/03/31 00:36:24;;;;;;;;;;;;;;;20.93;31.18;97897.44;4995736;28;831;-72
2024/03/31 00:38:50;;;;;;;;;;;;;;;20.71;31.14;97891.53;4995972;28;1968;-72
2024/03/31 00:41:15;;;;;;;;;;;;;;;20.73;31.28;97895.50;4995138;28;755;-73
2024/03/31 00:43:41;;;;;;;;;;;;;;;20.57;31.68;97892.66;4995526;28;732;-72
2024/03/31 00:46:07;;;;;;;;;;;;;;;20.42;31.59;97891.41;4979530;28;1077;-73
2024/03/31 00:48:32;;;;;;;;;;;;;;;20.76;31.07;97894.63;4995744;28;827;-73
2024/03/31 00:50:58;;;;;;;;;;;;;;;20.54;31.61;97893.56;5010946;28;1238;-73
2024/03/31 00:53:23;;;;;;;;;;;;;;;20.57;32.01;97892.66;5016265;28;1076;-73
2024/03/31 00:55:49;;;;;;;;;;;;;;;20.83;31.80;97887.19;5016211;28;1132;-73
2024/03/31 00:58:14;;;;;;;;;;;;;;;20.49;32.24;97882.78;5016148;28;1910;-73
2024/03/31 01:00:40;;;;;;;;;;;;;;;20.77;31.48;97879.22;4999469;28;1582;-73
2024/03/31 01:03:05;;;;;;;;;;;;;;;20.81;31.53;97879.16;4999889;28;1184;-72
2024/03/31 01:05:31;;;;;;;;;;;;;;;20.59;31.63;97878.91;4995425;28;1307;-73
2024/03/31 01:07:56;;;;;;;;;;;;;;;20.76;30.98;97877.66;4995312;28;923;-72
2024/03/31 01:10:22;;;;;;;;;;;;;;;20.81;31.16;97873.50;4995300;28;890;-73
2024/03/31 01:12:48;;;;;;;;;;;;;;;20.67;31.40;97879.50;4975919;28;1228;-73
2024/03/31 01:15:17;;;;;;;;;;;;;;;20.55;31.52;97878.97;4944221;28;1258;-72
2024/03/31 01:17:43;;;;;;;;;;;;;;;20.81;30.92;97874.28;4959525;28;1903;-73
2024/03/31 01:20:08;;;;;;;;;;;;;;;20.85;30.83;97873.41;4959639;28;1144;-72
2024/03/31 01:22:34;;;;;;;;;;;;;;;20.63;31.29;97873.94;4927664;28;1156;-73
2024/03/31 01:24:59;;;;;;;;;;;;;;;20.78;30.83;97875.19;4943463;28;1171;-73
2024/03/31 01:27:25;;;;;;;;;;;;;;;20.80;31.30;97867.03;4943358;28;1117;-73
2024/03/31 01:29:50;;;;;;;;;;;;;;;20.63;31.77;97871.13;4936955;29;1081;-73
2024/03/31 01:32:16;;;;;;;;;;;;;;;20.62;31.99;97871.53;4921003;29;1320;-73
2024/03/31 01:34:44;;;;;;;;;;;;;;;20.86;31.49;97869.34;4936672;29;867;-73
2024/03/31 01:37:10;;;;;;;;;;;;;;;20.79;31.76;97865.47;4906736;29;918;-73
2024/03/31 01:39:35;;;;;;;;;;;;;;;20.55;31.39;97861.22;4901864;29;1911;-72
2024/03/31 01:42:01;;;;;;;;;;;;;;;20.57;31.38;97863.59;4902287;29;1384;-72
2024/03/31 01:44:26;;;;;;;;;;;;;;;20.68;31.04;97859.28;4931422;29;811;-73
2024/03/31 01:46:52;;;;;;;;;;;;;;;20.75;31.10;97858.31;4956082;28;1027;-73
2024/03/31 01:49:17;;;;;;;;;;;;;;;20.81;30.80;97868.63;4955994;28;790;-74
2024/03/31 01:51:43;;;;;;;;;;;;;;;20.27;31.82;97866.28;4940345;29;1493;-73
2024/03/31 01:54:08;;;;;;;;;;;;;;;20.36;31.50;97864.88;4939863;28;1121;-72
2024/03/31 01:56:34;;;;;;;;;;;;;;;20.60;31.00;97866.34;4955989;29;1202;-72
2024/03/31 01:59:00;;;;;;;;;;;;;;;20.65;31.30;97865.81;4944771;28;1903;-72
2024/03/31 02:01:26;;;;;;;;;;;;;;;20.50;31.45;97867.41;4989449;28;1188;-72
2024/03/31 02:03:51;;;;;;;;;;;;;;;20.32;31.91;97862.16;4994356;28;771;-73
2024/03/31 02:06:17;;;;;;;;;;;;;;;20.62;31.89;97866.69;4978459;28;1063;-73
2024/03/31 02:08:42;;;;;;;;;;;;;;;20.79;31.49;97868.28;4978354;28;700;-73
2024/03/31 02:11:08;;;;;;;;;;;;;;;20.92;31.29;97867.56;4980314;28;1185;-73
2024/03/31 02:13:33;;;;;;;;;;;;;;;20.84;31.43;97866.97;5016241;28;754;-73
2024/03/31 02:15:59;;;;;;;;;;;;;;;20.73;31.40;97864.41;4994240;28;1612;-73
2024/03/31 02:18:26;;;;;;;;;;;;;;;20.75;31.52;97870.41;4994221;28;1975;-72
2024/03/31 02:20:51;;;;;;;;;;;;;;;21.06;30.61;97870.03;4978267;28;1324;-73
2024/03/31 02:23:17;;;;;;;;;;;;;;;20.58;31.17;97874.47;4994647;28;1179;-73
2024/03/31 02:25:42;;;;;;;;;;;;;;;20.60;31.38;97869.16;4994408;28;1112;-73
2024/03/31 02:28:08;;;;;;;;;;;;;;;20.69;31.17;97865.72;4978128;28;881;-73
2024/03/31 02:30:33;;;;;;;;;;;;;;;20.81;31.04;97877.13;4961630;28;1204;-73
2024/03/31 02:32:59;;;;;;;;;;;;;;;20.72;31.15;97871.28;4994294;28;1234;-73
2024/03/31 02:35:24;;;;;;;;;;;;;;;20.40;31.40;97871.25;4977926;28;1049;-73
2024/03/31 02:37:50;;;;;;;;;;;;;;;20.34;31.74;97873.00;4961845;28;1969;-73
2024/03/31 02:40:15;;;;;;;;;;;;;;;20.58;31.04;97874.47;4962020;28;1333;-73
2024/03/31 02:42:42;;;;;;;;;;;;;;;20.48;31.90;97867.06;4994401;28;1756;-72
2024/03/31 02:45:07;;;;;;;;;;;;;;;20.67;31.52;97868.19;4961726;28;1259;-72
2024/03/31 02:47:33;;;;;;;;;;;;;;;20.65;31.91;97873.50;5009612;28;1202;-72
2024/03/31 02:50:02;;;;;;;;;;;;;;;20.64;31.94;97875.53;4978206;28;1170;-73
2024/03/31 02:52:27;;;;;;;;;;;;;;;20.79;31.58;97873.94;4977895;28;1131;-72
2024/03/31 02:54:54;;;;;;;;;;;;;;;20.90;31.47;97875.72;4994007;28;1222;-73
2024/03/31 02:57:22;;;;;;;;;;;;;;;20.72;31.29;97871.28;4993924;28;1966;-72
2024/03/31 02:59:47;;;;;;;;;;;;;;;20.54;31.79;97877.38;4977877;28;1247;-73
2024/03/31 03:02:13;;;;;;;;;;;;;;;20.90;30.97;97887.03;4994323;28;1030;-73
2024/03/31 03:04:39;;;;;;;;;;;;;;;20.84;30.66;97883.13;4994700;28;1176;-72
2024/03/31 03:07:04;;;;;;;;;;;;;;;20.80;31.00;97886.84;4958611;28;1291;-73
2024/03/31 03:09:30;;;;;;;;;;;;;;;20.67;31.00;97883.13;4958791;28;1518;-72
2024/03/31 03:11:56;;;;;;;;;;;;;;;20.40;31.43;97885.38;4958641;28;1025;-73
2024/03/31 03:14:21;;;;;;;;;;;;;;;20.60;31.32;97883.31;4958701;28;1072;-73
2024/03/31 03:16:47;;;;;;;;;;;;;;;20.73;31.10;97878.53;4977916;28;1178;-73
2024/03/31 03:19:12;;;;;;;;;;;;;;;20.91;30.61;97878.09;4961607;28;1960;-72
2024/03/31 03:21:38;;;;;;;;;;;;;;;20.74;30.51;97874.47;4995884;28;1187;-73
2024/03/31 03:24:04;;;;;;;;;;;;;;;20.91;30.44;97880.13;4984521;28;1105;-72
2024/03/31 03:26:29;;;;;;;;;;;;;;;20.46;31.09;97880.78;5000251;28;1106;-73
2024/03/31 03:28:55;;;;;;;;;;;;;;;20.70;31.44;97882.25;4961733;28;1289;-73
2024/03/31 03:31:21;;;;;;;;;;;;;;;20.77;31.43;97884.88;4961786;28;1128;-72
2024/03/31 03:33:47;;;;;;;;;;;;;;;20.74;31.22;97885.78;4961631;28;1202;-73
2024/03/31 03:36:13;;;;;;;;;;;;;;;20.61;31.73;97882.06;4961180;28;1427;-73
2024/03/31 03:38:39;;;;;;;;;;;;;;;20.62;31.54;97883.66;4961115;28;1981;-72
2024/03/31 03:41:05;;;;;;;;;;;;;;;20.81;31.32;97879.94;4977396;28;1224;-73
2024/03/31 03:43:33;;;;;;;;;;;;;;;20.96;30.67;97890.91;4957904;28;1166;-72
2024/03/31 03:46:04;;;;;;;;;;;;;;;20.84;30.67;97883.13;4926985;29;1206;-73
2024/03/31 03:48:31;;;;;;;;;;;;;;;20.64;31.14;97886.06;4941877;28;1227;-73
2024/03/31 03:51:00;;;;;;;;;;;;;;;20.54;31.37;97885.06;4938790;29;1125;-74
2024/03/31 03:53:26;;;;;;;;;;;;;;;20.63;31.03;97879.59;4888521;29;1287;-72
2024/03/31 03:55:51;;;;;;;;;;;;;;;20.28;31.51;97898.97;4919649;29;1017;-72
2024/03/31 03:58:17;;;;;;;;;;;;;;;20.40;31.32;97899.50;4903832;29;1979;-72
2024/03/31 04:00:43;;;;;;;;;;;;;;;20.57;31.12;97898.31;4919222;29;1321;-73
2024/03/31 04:03:09;;;;;;;;;;;;;;;20.64;31.43;97898.16;4938689;29;1061;-73
2024/03/31 04:05:34;;;;;;;;;;;;;;;20.60;31.73;97903.09;4932172;29;1369;-73
2024/03/31 04:08:00;;;;;;;;;;;;;;;20.81;31.35;97902.56;4904005;29;1165;-73
2024/03/31 04:10:26;;;;;;;;;;;;;;;20.87;31.24;97902.81;4919542;29;1393;-72
2024/03/31 04:12:51;;;;;;;;;;;;;;;20.96;31.07;97902.22;4903591;29;1640;-73
2024/03/31 04:15:17;;;;;;;;;;;;;;;21.05;30.84;97908.84;4882116;29;1563;-73
2024/03/31 04:17:44;;;;;;;;;;;;;;;20.80;31.30;97912.28;4914254;29;1910;-72
2024/03/31 04:20:10;;;;;;;;;;;;;;;20.81;30.92;97913.88;4945101;28;918;-73
2024/03/31 04:22:35;;;;;;;;;;;;;;;20.78;30.83;97908.31;4976790;28;1299;-73
2024/03/31 04:25:01;;;;;;;;;;;;;;;20.52;31.49;97910.13;4968230;28;1291;-72
2024/03/31 04:27:26;;;;;;;;;;;;;;;20.57;31.33;97909.63;4999277;28;1462;-73
2024/03/31 04:29:52;;;;;;;;;;;;;;;20.65;31.05;97904.59;4999468;28;1097;-73
2024/03/31 04:32:17;;;;;;;;;;;;;;;20.69;30.87;97913.78;5016001;28;918;-73
2024/03/31 04:34:43;;;;;;;;;;;;;;;20.71;30.92;97914.94;4999377;28;1064;-73
2024/03/31 04:37:09;;;;;;;;;;;;;;;20.81;30.96;97911.03;4983303;28;1093;-73
2024/03/31 04:39:34;;;;;;;;;;;;;;;20.51;31.00;97917.03;4998985;28;1911;-72
2024/03/31 04:42:00;;;;;;;;;;;;;;;20.43;31.64;97904.28;4982973;28;1068;-73
2024/03/31 04:44:26;;;;;;;;;;;;;;;20.50;31.26;97909.78;4983004;28;1237;-73
2024/03/31 04:46:52;;;;;;;;;;;;;;;20.56;31.67;97908.03;4999109;28;1371;-72
2024/03/31 04:49:18;;;;;;;;;;;;;;;20.79;31.62;97907.88;4951166;28;1187;-73
2024/03/31 04:51:48;;;;;;;;;;;;;;;20.49;32.09;97908.22;4998942;28;1418;-73
2024/03/31 04:54:15;;;;;;;;;;;;;;;20.87;31.27;97905.66;4998931;28;1321;-73
2024/03/31 04:56:41;;;;;;;;;;;;;;;20.91;30.98;97905.56;5028501;28;1030;-73
2024/03/31 04:59:07;;;;;;;;;;;;;;;20.71;31.46;97903.63;5023690;28;1894;-72
2024/03/31 05:01:33;;;;;;;;;;;;;;;20.88;31.00;97906.44;5019738;28;1160;-72
2024/03/31 05:03:59;;;;;;;;;;;;;;;20.81;31.19;97913.09;5002941;28;1188;-73
2024/03/31 05:06:25;;;;;;;;;;;;;;;20.62;31.36;97911.91;5003082;28;1331;-73
2024/03/31 05:08:50;;;;;;;;;;;;;;;20.33;31.96;97919.47;5035649;28;944;-73
2024/03/31 05:11:16;;;;;;;;;;;;;;;20.47;31.76;97922.00;5036876;28;902;-73
2024/03/31 05:13:41;;;;;;;;;;;;;;;20.51;31.66;97919.84;5019270;28;1278;-72
2024/03/31 05:16:12;;;;;;;;;;;;;;;20.34;31.77;97912.56;5003836;28;1267;-73
2024/03/31 05:18:38;;;;;;;;;;;;;;;20.62;31.37;97917.56;5035696;28;1902;-73
2024/03/31 05:21:08;;;;;;;;;;;;;;;20.54;32.15;97919.00;5019030;28;1406;-73
2024/03/31 05:23:35;;;;;;;;;;;;;;;20.44;32.29;97911.53;5002988;28;1090;-73
2024/03/31 05:26:01;;;;;;;;;;;;;;;20.62;32.07;97923.22;5002904;28;1116;-73
2024/03/31 05:28:28;;;;;;;;;;;;;;;20.65;31.96;97905.41;5002462;28;1134;-73
2024/03/31 05:30:53;;;;;;;;;;;;;;;20.73;31.68;97915.31;5002827;28;1380;-73
2024/03/31 05:33:19;;;;;;;;;;;;;;;20.72;31.44;97913.69;5019031;28;1124;-73
2024/03/31 05:35:56;;;;;;;;;;;;;;;20.59;31.58;97907.16;4978510;28;1522;-73
2024/03/31 05:38:21;;;;;;;;;;;;;;;20.51;31.45;97917.03;4995023;28;1902;-73
2024/03/31 05:40:54;;;;;;;;;;;;;;;20.83;31.14;97913.47;4978390;28;1324;-73
2024/03/31 05:43:19;;;;;;;;;;;;;;;20.34;32.02;97906.91;4978812;28;1129;-74
2024/03/31 05:45:45;;;;;;;;;;;;;;;20.42;31.93;97914.00;4978538;28;1086;-73
2024/03/31 05:48:11;;;;;;;;;;;;;;;20.58;31.61;97916.88;4978698;28;1453;-73
2024/03/31 05:50:41;;;;;;;;;;;;;;;20.51;31.61;97917.03;4978248;28;1782;-73
2024/03/31 05:53:07;;;;;;;;;;;;;;;20.67;31.18;97919.88;4978542;28;1188;-72
2024/03/31 05:55:33;;;;;;;;;;;;;;;20.34;31.94;97918.22;4962152;28;1330;-73
2024/03/31 05:58:00;;;;;;;;;;;;;;;20.53;31.65;97925.88;4994691;28;1971;-72
2024/03/31 06:00:26;;;;;;;;;;;;;;;20.46;32.07;97921.16;4994387;28;1082;-73
2024/03/31 06:02:52;;;;;;;;;;;;;;;20.26;32.68;97929.69;4978533;28;1331;-73
2024/03/31 06:05:17;;;;;;;;;;;;;;;20.62;32.16;97928.09;4978527;28;1347;-72
2024/03/31 06:07:49;;;;;;;;;;;;;;;20.76;31.85;97925.72;5014745;28;1176;-74
2024/03/31 06:10:16;;;;;;;;;;;;;;;20.85;31.70;97935.63;5018791;28;1175;-72
2024/03/31 06:12:41;;;;;;;;;;;;;;;20.89;31.67;97936.34;5002560;28;1285;-73
2024/03/31 06:15:07;;;;;;;;;;;;;;;20.79;31.86;97933.31;5018630;28;1310;-72
2024/03/31 06:17:33;;;;;;;;;;;;;;;20.68;31.59;97932.78;5018329;28;1981;-73
2024/03/31 06:19:59;;;;;;;;;;;;;;;20.91;31.29;97939.50;5002304;28;1103;-73
2024/03/31 06:22:24;;;;;;;;;;;;;;;20.83;31.40;97938.91;5018449;28;1323;-73
2024/03/31 06:24:50;;;;;;;;;;;;;;;20.79;31.35;97938.97;5002113;28;1191;-73
2024/03/31 06:27:16;;;;;;;;;;;;;;;20.61;31.75;97949.13;5034897;28;1374;-73
2024/03/31 06:29:47;;;;;;;;;;;;;;;20.48;31.91;97946.19;5001903;28;1473;-73
2024/03/31 06:32:13;;;;;;;;;;;;;;;20.61;31.48;97949.91;5002094;28;1239;-72
2024/03/31 06:34:38;;;;;;;;;;;;;;;20.62;31.72;97939.38;5034560;28;967;-73
2024/03/31 06:37:06;;;;;;;;;;;;;;;20.63;31.42;97955.94;5017980;28;1234;-73
2024/03/31 06:39:32;;;;;;;;;;;;;;;20.34;31.88;97952.91;5036409;28;2236;-72
2024/03/31 06:41:57;;;;;;;;;;;;;;;20.55;31.64;97962.97;5005853;28;1136;-73
2024/03/31 06:44:23;;;;;;;;;;;;;;;20.70;31.55;97964.25;5022023;28;1254;-73
2024/03/31 06:46:48;;;;;;;;;;;;;;;20.42;32.57;97964.88;5038530;28;1294;-72
2024/03/31 06:49:14;;;;;;;;;;;;;;;20.48;32.81;97966.78;5021891;28;966;-73
2024/03/31 06:51:40;;;;;;;;;;;;;;;20.73;32.29;97963.38;5021627;28;1567;-73
2024/03/31 06:54:05;;;;;;;;;;;;;;;20.81;32.03;97967.59;5022058;28;1155;-73
2024/03/31 06:56:31;;;;;;;;;;;;;;;20.84;31.79;97962.31;5021901;28;1187;-73
2024/03/31 06:58:56;;;;;;;;;;;;;;;20.73;31.88;97957.72;5021459;28;1906;-72
2024/03/31 07:01:22;;;;;;;;;;;;;;;20.69;31.52;97956.22;4988093;28;1105;-73
2024/03/31 07:03:48;;;;;;;;;;;;;;;20.47;31.87;97956.72;4978259;28;1320;-72
2024/03/31 07:06:13;;;;;;;;;;;;;;;20.66;31.60;97966.34;4978174;28;1235;-73
2024/03/31 07:08:42;;;;;;;;;;;;;;;20.41;31.88;97957.59;4978104;28;1136;-72
2024/03/31 07:11:08;;;;;;;;;;;;;;;20.54;31.55;97965.00;4961709;28;1287;-73
2024/03/31 07:13:34;;;;;;;;;;;;;;;20.64;31.77;97963.19;4977857;28;1167;-72
2024/03/31 07:15:59;;;;;;;;;;;;;;;20.55;31.72;97965.81;4978198;28;1109;-73
2024/03/31 07:18:25;;;;;;;;;;;;;;;20.35;32.33;97965.03;4958281;29;1979;-73
2024/03/31 07:20:51;;;;;;;;;;;;;;;20.58;31.83;97967.75;4942769;28;1139;-73
2024/03/31 07:23:16;;;;;;;;;;;;;;;20.54;31.49;97972.69;4942541;29;1312;-73
2024/03/31 07:25:42;;;;;;;;;;;;;;;20.80;31.41;97974.50;4926807;29;1193;-73
2024/03/31 07:28:08;;;;;;;;;;;;;;;20.62;31.76;97978.97;4956146;28;1393;-73
2024/03/31 07:30:37;;;;;;;;;;;;;;;20.78;31.20;97982.66;4941753;28;1191;-73
2024/03/31 07:33:03;;;;;;;;;;;;;;;20.30;32.06;97981.25;4950069;28;1236;-72
2024/03/31 07:35:30;;;;;;;;;;;;;;;20.35;32.22;97976.31;4957646;28;1247;-72
2024/03/31 07:37:55;;;;;;;;;;;;;;;20.51;32.69;97967.91;4980382;28;1974;-73
2024/03/31 07:40:21;;;;;;;;;;;;;;;20.80;32.20;97974.50;4980181;28;1297;-73
2024/03/31 07:42:46;;;;;;;;;;;;;;;20.84;32.33;97973.63;4986532;28;1198;-73
2024/03/31 07:45:12;;;;;;;;;;;;;;;20.71;32.64;97970.69;4989917;28;1478;-73
2024/03/31 07:47:37;;;;;;;;;;;;;;;20.90;31.94;97988.84;5005684;28;1313;-72
2024/03/31 07:50:03;;;;;;;;;;;;;;;20.76;32.22;97970.16;4996041;28;1271;-72
2024/03/31 07:52:29;;;;;;;;;;;;;;;20.81;31.89;97975.28;5016428;28;1004;-73
2024/03/31 07:54:54;;;;;;;;;;;;;;;20.86;31.52;97976.81;5005203;28;971;-72
2024/03/31 07:57:20;;;;;;;;;;;;;;;20.95;31.25;97974.16;5035733;28;1015;-72
2024/03/31 07:59:46;;;;;;;;;;;;;;;20.94;31.14;97973.38;5015397;28;1918;-72
2024/03/31 08:02:12;;;;;;;;;;;;;;;20.63;32.03;97967.25;4975233;28;1357;-73
2024/03/31 08:04:39;;;;;;;;;;;;;;;20.80;31.58;97977.31;4999989;28;1280;-73
2024/03/31 08:07:04;;;;;;;;;;;;;;;20.79;31.85;97978.56;5016337;28;966;-73
2024/03/31 08:09:30;;;;;;;;;;;;;;;20.90;31.59;97974.69;4960753;28;998;-73
2024/03/31 08:11:55;;;;;;;;;;;;;;;20.63;32.26;97970.06;4960721;28;996;-73
2024/03/31 08:14:21;;;;;;;;;;;;;;;20.55;32.40;97979.94;4944782;28;1028;-73
2024/03/31 08:16:46;;;;;;;;;;;;;;;20.51;32.14;97973.56;4976910;28;1233;-73
2024/03/31 08:19:12;;;;;;;;;;;;;;;20.57;32.08;97971.81;4960701;28;1984;-72
2024/03/31 08:21:38;;;;;;;;;;;;;;;20.66;32.15;97974.03;4977196;28;988;-73
2024/03/31 08:24:04;;;;;;;;;;;;;;;20.59;32.40;97980.66;4960680;28;981;-73
2024/03/31 08:26:30;;;;;;;;;;;;;;;20.75;31.77;97979.88;4945174;28;1339;-73
2024/03/31 08:28:55;;;;;;;;;;;;;;;20.77;32.06;97983.84;4960773;28;1155;-73
2024/03/31 08:31:21;;;;;;;;;;;;;;;20.53;32.23;97982.41;4960136;28;993;-73
2024/03/31 08:33:46;;;;;;;;;;;;;;;20.63;31.92;97981.38;4960398;28;1169;-74
2024/03/31 08:36:12;;;;;;;;;;;;;;;20.65;31.99;97978.09;4976661;28;1099;-73
2024/03/31 08:38:37;;;;;;;;;;;;;;;20.84;31.87;97984.94;4976439;28;1899;-73
2024/03/31 08:41:04;;;;;;;;;;;;;;;20.85;31.45;97986.53;4993347;28;1248;-73
2024/03/31 08:43:31;;;;;;;;;;;;;;;20.46;32.80;97988.19;5036726;28;884;-73
2024/03/31 08:45:56;;;;;;;;;;;;;;;20.48;33.60;97982.94;5035987;28;867;-73
2024/03/31 08:48:22;;;;;;;;;;;;;;;20.85;33.04;97986.53;5036292;28;1039;-74
2024/03/31 08:50:47;;;;;;;;;;;;;;;20.97;32.84;97983.00;5042481;28;1166;-73
2024/03/31 08:53:13;;;;;;;;;;;;;;;20.96;32.87;97992.72;5042107;28;1204;-73
2024/03/31 08:55:39;;;;;;;;;;;;;;;20.88;32.69;97991.28;5006162;28;1068;-73
2024/03/31 08:58:05;;;;;;;;;;;;;;;20.98;32.39;97991.03;5047039;28;1918;-73
2024/03/31 09:00:31;;;;;;;;;;;;;;;20.90;32.52;97983.97;5029862;28;1274;-72
2024/03/31 09:02:56;;;;;;;;;;;;;;;20.95;32.37;97985.47;5045280;28;1241;-73
2024/03/31 09:05:22;;;;;;;;;;;;;;;20.67;32.69;97976.41;5028924;28;1225;-73
2024/03/31 09:07:47;;;;;;;;;;;;;;;20.90;32.16;97978.31;5046368;28;1194;-72
2024/03/31 09:10:14;;;;;;;;;;;;;;;20.62;32.55;97979.75;5019114;28;982;-72
2024/03/31 09:12:40;;;;;;;;;;;;;;;20.72;32.50;97973.06;5037027;28;839;-72
2024/03/31 09:15:06;;;;;;;;;;;;;;;20.86;32.12;97977.59;5034177;28;995;-73
2024/03/31 09:17:32;;;;;;;;;;;;;;;20.84;31.89;97967.97;5018996;28;799;-73
2024/03/31 09:19:58;;;;;;;;;;;;;;;20.88;31.76;97985.63;5019214;28;1914;-72
2024/03/31 09:22:23;;;;;;;;;;;;;;;20.97;31.48;97985.81;5044739;28;1150;-72
2024/03/31 09:24:49;;;;;;;;;;;;;;;20.90;31.73;97980.34;5019024;28;1362;-72
2024/03/31 09:27:14;;;;;;;;;;;;;;;20.95;31.55;97971.34;5028703;28;1264;-72
2024/03/31 09:29:42;;;;;;;;;;;;;;;20.74;31.68;97981.13;5014444;28;1246;-72
2024/03/31 09:32:09;;;;;;;;;;;;;;;20.71;31.94;97982.00;4978828;28;1266;-72
2024/03/31 09:34:35;;;;;;;;;;;;;;;20.70;32.01;97974.75;4995241;28;1138;-72
2024/03/31 09:37:01;;;;;;;;;;;;;;;20.59;32.11;97975.00;4995260;28;930;-73
2024/03/31 09:39:27;;;;;;;;;;;;;;;20.45;32.08;97970.44;4994709;28;1910;-74
2024/03/31 09:41:53;;;;;;;;;;;;;;;20.72;31.95;97967.41;4995079;28;1125;-73
2024/03/31 09:44:19;;;;;;;;;;;;;;;20.63;31.78;97967.25;4979070;28;1090;-73
2024/03/31 09:46:44;;;;;;;;;;;;;;;20.57;31.85;97977.47;4995258;28;958;-73
2024/03/31 09:49:10;;;;;;;;;;;;;;;20.81;31.53;97970.44;4978844;28;1035;-73
2024/03/31 09:51:36;;;;;;;;;;;;;;;20.65;31.90;97967.59;4978577;28;1010;-73
2024/03/31 09:54:06;;;;;;;;;;;;;;;20.70;31.92;97969.91;4978521;28;899;-73
2024/03/31 09:56:35;;;;;;;;;;;;;;;20.71;31.79;97971.47;4978808;28;1014;-73
2024/03/31 09:59:02;;;;;;;;;;;;;;;20.86;31.63;97973.97;4994703;28;1907;-73
2024/03/31 10:01:27;;;;;;;;;;;;;;;20.58;31.93;97970.59;5012197;28;983;-73
2024/03/31 10:03:53;;;;;;;;;;;;;;;20.65;31.77;97967.59;5038154;28;1087;-73
2024/03/31 10:06:18;;;;;;;;;;;;;;;20.53;31.89;97965.47;5055181;28;1268;-72
2024/03/31 10:08:44;;;;;;;;;;;;;;;20.71;31.67;97968.66;5017479;28;1134;-72
2024/03/31 10:11:10;;;;;;;;;;;;;;;20.40;32.09;97970.16;5034160;28;1032;-72
2024/03/31 10:13:36;;;;;;;;;;;;;;;20.52;32.03;97969.50;5017395;28;1014;-73
2024/03/31 10:16:01;;;;;;;;;;;;;;;20.49;32.17;97964.75;5020835;28;910;-73
2024/03/31 10:18:27;;;;;;;;;;;;;;;20.63;31.79;97964.41;5021558;28;1902;-73
2024/03/31 10:20:52;;;;;;;;;;;;;;;20.67;32.28;97965.09;5021696;28;952;-73
2024/03/31 10:23:18;;;;;;;;;;;;;;;20.66;33.25;97966.34;5021650;28;1073;-73
2024/03/31 10:25:44;;;;;;;;;;;;;;;20.59;34.00;97960.88;5038157;28;991;-72
2024/03/31 10:28:10;;;;;;;;;;;;;;;20.59;34.46;97957.25;5021216;28;985;-73
2024/03/31 10:30:35;;;;;;;;;;;;;;;20.71;34.31;97948.06;5021520;28;1032;-73
2024/03/31 10:33:01;;;;;;;;;;;;;;;20.90;33.93;97960.56;5037921;28;1208;-73
2024/03/31 10:35:27;;;;;;;;;;;;;;;20.96;33.53;97941.81;5021330;28;1108;-73
2024/03/31 10:37:53;;;;;;;;;;;;;;;21.01;33.28;97949.75;5037781;28;1969;-73
2024/03/31 10:40:25;;;;;;;;;;;;;;;20.94;33.47;97956.41;5037078;28;1005;-72
2024/03/31 10:42:51;;;;;;;;;;;;;;;20.91;33.39;97950.81;5043230;28;947;-72
2024/03/31 10:45:16;;;;;;;;;;;;;;;20.97;33.20;97951.88;5042049;28;862;-73
2024/03/31 10:47:42;;;;;;;;;;;;;;;21.00;32.98;97948.19;5037091;28;998;-73
2024/03/31 10:50:08;;;;;;;;;;;;;;;21.02;32.91;97946.47;5020879;28;1152;-73
2024/03/31 10:52:36;;;;;;;;;;;;;;;20.93;32.96;97943.47;5004213;28;2052;-72
2024/03/31 10:55:02;;;;;;;;;;;;;;;20.75;33.09;97943.13;5037243;28;973;-73
2024/03/31 10:57:34;;;;;;;;;;;;;;;20.68;32.83;97935.63;5037292;28;883;-72
2024/03/31 11:00:01;;;;;;;;;;;;;;;21.08;32.15;97949.56;5004345;28;1967;-73
2024/03/31 11:02:27;;;;;;;;;;;;;;;21.09;32.01;97942.69;5020820;28;944;-73
2024/03/31 11:04:59;;;;;;;;;;;;;;;20.79;32.46;97946.66;5004262;28;1170;-72
2024/03/31 11:07:24;;;;;;;;;;;;;;;20.73;32.67;97946.41;5037372;28;939;-72
2024/03/31 11:09:50;;;;;;;;;;;;;;;20.57;32.90;97937.09;5020791;28;981;-73
2024/03/31 11:12:16;;;;;;;;;;;;;;;20.69;32.70;97934.38;5020659;28;1092;-73
2024/03/31 11:14:41;;;;;;;;;;;;;;;20.64;32.53;97936.94;4981254;28;1418;-73
2024/03/31 11:17:07;;;;;;;;;;;;;;;20.93;32.29;97925.72;4961594;28;1003;-73
2024/03/31 11:19:32;;;;;;;;;;;;;;;20.95;32.16;97928.91;4978160;28;1922;-72
2024/03/31 11:22:00;;;;;;;;;;;;;;;20.69;32.68;97928.72;4962105;28;991;-73
2024/03/31 11:24:26;;;;;;;;;;;;;;;20.73;32.33;97911.69;4978004;28;1136;-72
2024/03/31 11:26:51;;;;;;;;;;;;;;;20.83;32.15;97916.28;4977171;28;1079;-72
2024/03/31 11:29:17;;;;;;;;;;;;;;;20.85;32.38;97915.84;4942564;28;1012;-72
2024/03/31 11:31:42;;;;;;;;;;;;;;;21.04;31.79;97917.78;4942502;29;1002;-72
2024/03/31 11:34:08;;;;;;;;;;;;;;;20.89;32.15;97913.72;4926457;28;1169;-73
2024/03/31 11:36:34;;;;;;;;;;;;;;;20.73;32.19;97923.78;4958581;28;982;-72
2024/03/31 11:39:00;;;;;;;;;;;;;;;20.74;32.19;97914.06;4958168;28;1969;-72
2024/03/31 11:41:25;;;;;;;;;;;;;;;20.94;31.84;97913.19;4958040;28;1043;-72
2024/03/31 11:43:51;;;;;;;;;;;;;;;20.85;31.87;97913.00;4958390;28;982;-72
2024/03/31 11:46:17;;;;;;;;;;;;;;;20.66;32.26;97920.31;4987023;28;939;-73
2024/03/31 11:48:42;;;;;;;;;;;;;;;20.88;31.93;97918.59;5011140;28;1052;-72
2024/03/31 11:51:08;;;;;;;;;;;;;;;20.96;31.68;97922.00;5037339;28;1154;-72
2024/03/31 11:53:33;;;;;;;;;;;;;;;20.62;32.25;97917.56;5004277;28;1000;-72
2024/03/31 11:55:59;;;;;;;;;;;;;;;20.71;32.07;97914.94;5020863;28;1010;-72
2024/03/31 11:58:25;;;;;;;;;;;;;;;20.86;32.01;97915.38;5004215;28;1910;-72
2024/03/31 12:00:51;;;;;;;;;;;;;;;20.85;31.81;97907.34;5020789;28;958;-72
2024/03/31 12:03:16;;;;;;;;;;;;;;;20.79;32.04;97904.25;5020925;28;1134;-72
2024/03/31 12:05:45;;;;;;;;;;;;;;;20.88;31.66;97912.94;5038398;28;1024;-72
2024/03/31 12:08:11;;;;;;;;;;;;;;;20.99;31.71;97901.34;5015923;28;1181;-72
2024/03/31 12:10:36;;;;;;;;;;;;;;;20.87;31.88;97893.53;4999513;28;1062;-72
2024/03/31 12:13:02;;;;;;;;;;;;;;;20.75;32.03;97893.03;4979968;28;1023;-72
2024/03/31 12:15:28;;;;;;;;;;;;;;;20.98;31.55;97899.72;4979912;28;1686;-72
2024/03/31 12:17:57;;;;;;;;;;;;;;;20.80;31.74;97884.00;4979664;28;1910;-72
2024/03/31 12:20:23;;;;;;;;;;;;;;;21.03;31.34;97890.69;4960769;28;1144;-72
2024/03/31 12:22:48;;;;;;;;;;;;;;;20.81;31.94;97891.25;4960775;28;949;-72
2024/03/31 12:25:14;;;;;;;;;;;;;;;20.61;32.06;97887.72;4960793;28;873;-72
2024/03/31 12:27:39;;;;;;;;;;;;;;;20.94;31.48;97888.53;4960334;28;1199;-72
2024/03/31 12:30:05;;;;;;;;;;;;;;;20.72;31.81;97888.25;4976401;28;1246;-73
2024/03/31 12:32:31;;;;;;;;;;;;;;;20.86;31.73;97891.97;4976647;28;1263;-72
2024/03/31 12:34:56;;;;;;;;;;;;;;;21.00;31.33;97891.59;4976753;28;962;-73
2024/03/31 12:37:22;;;;;;;;;;;;;;;21.02;31.53;97883.47;4918194;29;1097;-72
2024/03/31 12:39:48;;;;;;;;;;;;;;;20.89;31.51;97888.25;4917546;29;1910;-72
2024/03/31 12:42:13;;;;;;;;;;;;;;;20.58;32.16;97876.50;4937870;29;1055;-72
2024/03/31 12:44:39;;;;;;;;;;;;;;;20.84;31.83;97871.81;4918719;29;1196;-72
2024/03/31 12:47:05;;;;;;;;;;;;;;;20.89;31.63;97886.22;4918974;29;1049;-72
2024/03/31 12:49:31;;;;;;;;;;;;;;;20.97;31.34;97872.69;4919026;29;1004;-72
2024/03/31 12:51:56;;;;;;;;;;;;;;;20.50;32.30;97868.19;4946926;29;960;-72
2024/03/31 12:54:23;;;;;;;;;;;;;;;21.02;31.59;97877.81;4957087;29;935;-72